Terminal Aerodrome Forecast
Issued by NWS

Current Version | Previous Version | Text Only | Print | Product List | Glossary On
Versions: 1 2 3 4 5 6 7 8 9 10 11 12 13 14 15 16 17 18 19 20 21 22 23 24 25 26 27 28 29 30 31 32 33 34 35 36 37 38 39 40 41 42 43 44 45 46 47 48 49 50
000
FTUS41 KCTP 222343
TAFBFD
TAF
KBFD 222343Z 2300/2324 21008G17KT 6SM BR VCSH OVC025 WS018/25050KT
      TEMPO 2300/2303 3SM -SHRA BR SCT025 OVC035
     FM230400 20008KT 5SM -RA BR BKN015 OVC030 WS019/25039KT
     FM230700 21008KT P6SM VCSH OVC015 WS020/25040KT
     FM231600 18006KT P6SM OVC025=

USA.gov is the U.S. government's official web portal to all federal, state and local government web resources and services.